sensor_id;sensor_type;location;lat;lon;timestamp;P1;durP1;ratioP1;P2;durP2;ratioP2
11498;SDS011;5806;48.748;9.278;2023-01-01T00:01:57;28.47;;;19.60;;
11498;SDS011;5806;48.748;9.278;2023-01-01T00:04:24;24.40;;;17.37;;
11498;SDS011;5806;48.748;9.278;2023-01-01T00:06:51;23.23;;;17.00;;
11498;SDS011;5806;48.748;9.278;2023-01-01T00:09:17;27.57;;;18.30;;
11498;SDS011;5806;48.748;9.278;2023-01-01T00:12:02;24.73;;;18.13;;
11498;SDS011;5806;48.748;9.278;2023-01-01T00:14:28;28.90;;;18.73;;
11498;SDS011;5806;48.748;9.278;2023-01-01T00:16:55;24.60;;;17.80;;
11498;SDS011;5806;48.748;9.278;2023-01-01T00:19:21;25.70;;;17.20;;
11498;SDS011;5806;48.748;9.278;2023-01-01T00:21:48;21.20;;;15.50;;
11498;SDS011;5806;48.748;9.278;2023-01-01T00:24:14;22.37;;;15.77;;
11498;SDS011;5806;48.748;9.278;2023-01-01T00:26:41;27.47;;;15.20;;
11498;SDS011;5806;48.748;9.278;2023-01-01T00:29:07;17.80;;;12.40;;
11498;SDS011;5806;48.748;9.278;2023-01-01T00:31:34;14.83;;;11.67;;
11498;SDS011;5806;48.748;9.278;2023-01-01T00:34:00;14.80;;;10.73;;
11498;SDS011;5806;48.748;9.278;2023-01-01T00:36:27;11.20;;;9.60;;
11498;SDS011;5806;48.748;9.278;2023-01-01T00:38:54;14.20;;;8.60;;
11498;SDS011;5806;48.748;9.278;2023-01-01T00:41:21;12.73;;;8.73;;
11498;SDS011;5806;48.748;9.278;2023-01-01T00:43:47;12.83;;;8.27;;
11498;SDS011;5806;48.748;9.278;2023-01-01T00:46:14;12.30;;;7.90;;
11498;SDS011;5806;48.748;9.278;2023-01-01T00:48:41;11.93;;;7.07;;
11498;SDS011;5806;48.748;9.278;2023-01-01T00:51:08;10.87;;;5.87;;
11498;SDS011;5806;48.748;9.278;2023-01-01T00:53:34;8.43;;;5.57;;
11498;SDS011;5806;48.748;9.278;2023-01-01T00:56:01;8.17;;;4.77;;
11498;SDS011;5806;48.748;9.278;2023-01-01T00:58:27;7.47;;;4.50;;
11498;SDS011;5806;48.748;9.278;2023-01-01T01:00:54;9.00;;;4.17;;
11498;SDS011;5806;48.748;9.278;2023-01-01T01:03:21;7.57;;;4.17;;
11498;SDS011;5806;48.748;9.278;2023-01-01T01:05:54;6.93;;;3.80;;
11498;SDS011;5806;48.748;9.278;2023-01-01T01:08:21;6.43;;;3.60;;
11498;SDS011;5806;48.748;9.278;2023-01-01T01:10:47;4.93;;;3.10;;
11498;SDS011;5806;48.748;9.278;2023-01-01T01:13:14;6.03;;;3.33;;
11498;SDS011;5806;48.748;9.278;2023-01-01T01:15:40;5.47;;;3.13;;
11498;SDS011;5806;48.748;9.278;2023-01-01T01:18:07;5.50;;;2.87;;
11498;SDS011;5806;48.748;9.278;2023-01-01T01:20:34;6.70;;;3.33;;
11498;SDS011;5806;48.748;9.278;2023-01-01T01:23:00;5.17;;;3.23;;
11498;SDS011;5806;48.748;9.278;2023-01-01T01:25:27;4.57;;;2.80;;
11498;SDS011;5806;48.748;9.278;2023-01-01T01:27:53;5.07;;;2.70;;
11498;SDS011;5806;48.748;9.278;2023-01-01T01:30:20;8.50;;;2.80;;
11498;SDS011;5806;48.748;9.278;2023-01-01T01:32:46;5.90;;;2.60;;
11498;SDS011;5806;48.748;9.278;2023-01-01T01:35:13;6.47;;;2.60;;
11498;SDS011;5806;48.748;9.278;2023-01-01T01:37:39;5.40;;;3.07;;
11498;SDS011;5806;48.748;9.278;2023-01-01T01:40:06;3.77;;;2.93;;
11498;SDS011;5806;48.748;9.278;2023-01-01T01:42:33;4.53;;;2.37;;
11498;SDS011;5806;48.748;9.278;2023-01-01T01:45:00;5.03;;;2.20;;
11498;SDS011;5806;48.748;9.278;2023-01-01T01:47:31;3.37;;;2.30;;
11498;SDS011;5806;48.748;9.278;2023-01-01T01:50:44;4.57;;;1.90;;
11498;SDS011;5806;48.748;9.278;2023-01-01T01:52:26;3.93;;;1.80;;
11498;SDS011;5806;48.748;9.278;2023-01-01T01:54:53;4.03;;;2.00;;
11498;SDS011;5806;48.748;9.278;2023-01-01T01:57:20;4.00;;;2.10;;
11498;SDS011;5806;48.748;9.278;2023-01-01T01:59:47;4.17;;;1.70;;
11498;SDS011;5806;48.748;9.278;2023-01-01T02:02:19;4.10;;;1.80;;
11498;SDS011;5806;48.748;9.278;2023-01-01T02:04:43;5.20;;;1.90;;
11498;SDS011;5806;48.748;9.278;2023-01-01T02:07:11;2.90;;;1.53;;
11498;SDS011;5806;48.748;9.278;2023-01-01T02:09:38;3.40;;;1.70;;
11498;SDS011;5806;48.748;9.278;2023-01-01T02:12:05;2.50;;;1.30;;
11498;SDS011;5806;48.748;9.278;2023-01-01T02:14:32;3.53;;;1.40;;
11498;SDS011;5806;48.748;9.278;2023-01-01T02:17:04;3.67;;;1.73;;
11498;SDS011;5806;48.748;9.278;2023-01-01T02:19:53;5.23;;;1.90;;
11498;SDS011;5806;48.748;9.278;2023-01-01T02:27:27;2.50;;;1.23;;
11498;SDS011;5806;48.748;9.278;2023-01-01T02:29:57;2.93;;;1.30;;
11498;SDS011;5806;48.748;9.278;2023-01-01T02:32:21;2.93;;;1.40;;
11498;SDS011;5806;48.748;9.278;2023-01-01T02:34:57;3.97;;;1.60;;
11498;SDS011;5806;48.748;9.278;2023-01-01T02:37:21;1.60;;;1.20;;
11498;SDS011;5806;48.748;9.278;2023-01-01T02:39:50;2.23;;;1.30;;
11498;SDS011;5806;48.748;9.278;2023-01-01T02:42:17;3.77;;;1.57;;
11498;SDS011;5806;48.748;9.278;2023-01-01T02:44:45;4.30;;;1.77;;
11498;SDS011;5806;48.748;9.278;2023-01-01T02:47:14;4.63;;;1.23;;
11498;SDS011;5806;48.748;9.278;2023-01-01T02:49:44;2.00;;;1.10;;
11498;SDS011;5806;48.748;9.278;2023-01-01T02:52:10;2.90;;;1.43;;
11498;SDS011;5806;48.748;9.278;2023-01-01T02:54:41;3.53;;;1.30;;
11498;SDS011;5806;48.748;9.278;2023-01-01T02:57:07;2.93;;;1.30;;
11498;SDS011;5806;48.748;9.278;2023-01-01T02:59:42;3.20;;;1.40;;
11498;SDS011;5806;48.748;9.278;2023-01-01T03:05:01;3.40;;;1.53;;
11498;SDS011;5806;48.748;9.278;2023-01-01T03:10:13;3.97;;;1.30;;
11498;SDS011;5806;48.748;9.278;2023-01-01T03:12:45;4.17;;;1.40;;
11498;SDS011;5806;48.748;9.278;2023-01-01T03:15:13;1.70;;;1.37;;
11498;SDS011;5806;48.748;9.278;2023-01-01T03:17:40;4.37;;;1.27;;
11498;SDS011;5806;48.748;9.278;2023-01-01T03:20:09;5.17;;;1.40;;
11498;SDS011;5806;48.748;9.278;2023-01-01T03:22:35;3.60;;;1.47;;
11498;SDS011;5806;48.748;9.278;2023-01-01T03:25:05;1.77;;;1.40;;
11498;SDS011;5806;48.748;9.278;2023-01-01T03:27:36;4.30;;;1.50;;
11498;SDS011;5806;48.748;9.278;2023-01-01T03:29:59;4.43;;;1.60;;
11498;SDS011;5806;48.748;9.278;2023-01-01T03:32:28;3.60;;;1.40;;
11498;SDS011;5806;48.748;9.278;2023-01-01T03:34:56;3.03;;;1.30;;
11498;SDS011;5806;48.748;9.278;2023-01-01T03:37:25;4.63;;;1.33;;
11498;SDS011;5806;48.748;9.278;2023-01-01T03:39:52;2.97;;;1.43;;
11498;SDS011;5806;48.748;9.278;2023-01-01T03:42:25;3.93;;;1.20;;
11498;SDS011;5806;48.748;9.278;2023-01-01T03:44:54;2.67;;;1.40;;
11498;SDS011;5806;48.748;9.278;2023-01-01T03:47:22;3.63;;;1.30;;
11498;SDS011;5806;48.748;9.278;2023-01-01T03:49:49;4.37;;;1.57;;
11498;SDS011;5806;48.748;9.278;2023-01-01T03:54:52;4.23;;;1.40;;
11498;SDS011;5806;48.748;9.278;2023-01-01T03:59:51;3.23;;;1.33;;
11498;SDS011;5806;48.748;9.278;2023-01-01T04:02:17;3.07;;;1.50;;
11498;SDS011;5806;48.748;9.278;2023-01-01T04:04:46;4.33;;;1.40;;
11498;SDS011;5806;48.748;9.278;2023-01-01T04:07:12;2.70;;;1.30;;
11498;SDS011;5806;48.748;9.278;2023-01-01T04:09:39;3.90;;;1.40;;
11498;SDS011;5806;48.748;9.278;2023-01-01T04:12:07;4.97;;;1.10;;
11498;SDS011;5806;48.748;9.278;2023-01-01T04:14:35;4.57;;;1.30;;
11498;SDS011;5806;48.748;9.278;2023-01-01T04:17:03;3.73;;;1.60;;
11498;SDS011;5806;48.748;9.278;2023-01-01T04:19:30;2.23;;;1.50;;
11498;SDS011;5806;48.748;9.278;2023-01-01T04:21:57;2.90;;;1.63;;
11498;SDS011;5806;48.748;9.278;2023-01-01T04:24:23;5.63;;;1.50;;
11498;SDS011;5806;48.748;9.278;2023-01-01T04:26:50;2.83;;;1.60;;
11498;SDS011;5806;48.748;9.278;2023-01-01T04:29:17;3.17;;;1.50;;
11498;SDS011;5806;48.748;9.278;2023-01-01T04:31:44;5.50;;;1.70;;
11498;SDS011;5806;48.748;9.278;2023-01-01T04:34:11;3.03;;;1.50;;
11498;SDS011;5806;48.748;9.278;2023-01-01T04:36:37;3.17;;;1.80;;
11498;SDS011;5806;48.748;9.278;2023-01-01T04:39:04;4.80;;;1.50;;
11498;SDS011;5806;48.748;9.278;2023-01-01T04:41:31;4.70;;;1.27;;
11498;SDS011;5806;48.748;9.278;2023-01-01T04:43:57;2.77;;;1.53;;
11498;SDS011;5806;48.748;9.278;2023-01-01T04:46:24;4.27;;;1.70;;
11498;SDS011;5806;48.748;9.278;2023-01-01T04:48:51;4.07;;;1.40;;
11498;SDS011;5806;48.748;9.278;2023-01-01T04:51:18;2.90;;;1.47;;
11498;SDS011;5806;48.748;9.278;2023-01-01T04:53:44;3.07;;;1.53;;
11498;SDS011;5806;48.748;9.278;2023-01-01T04:56:12;4.80;;;1.57;;
11498;SDS011;5806;48.748;9.278;2023-01-01T04:58:39;3.60;;;1.77;;
11498;SDS011;5806;48.748;9.278;2023-01-01T05:01:07;4.10;;;1.47;;
11498;SDS011;5806;48.748;9.278;2023-01-01T05:03:33;3.17;;;1.50;;
11498;SDS011;5806;48.748;9.278;2023-01-01T05:06:00;4.20;;;1.47;;
11498;SDS011;5806;48.748;9.278;2023-01-01T05:08:32;3.43;;;1.60;;
11498;SDS011;5806;48.748;9.278;2023-01-01T05:11:04;3.73;;;1.40;;
11498;SDS011;5806;48.748;9.278;2023-01-01T05:13:26;3.53;;;1.57;;
11498;SDS011;5806;48.748;9.278;2023-01-01T05:15:52;4.33;;;1.57;;
11498;SDS011;5806;48.748;9.278;2023-01-01T05:18:19;4.57;;;1.40;;
11498;SDS011;5806;48.748;9.278;2023-01-01T05:20:46;4.17;;;1.67;;
11498;SDS011;5806;48.748;9.278;2023-01-01T05:23:17;3.43;;;1.57;;
11498;SDS011;5806;48.748;9.278;2023-01-01T05:25:42;5.27;;;1.20;;
11498;SDS011;5806;48.748;9.278;2023-01-01T05:28:08;3.30;;;1.20;;
11498;SDS011;5806;48.748;9.278;2023-01-01T05:30:37;5.80;;;1.50;;
11498;SDS011;5806;48.748;9.278;2023-01-01T05:33:03;4.40;;;1.83;;
11498;SDS011;5806;48.748;9.278;2023-01-01T05:35:29;3.57;;;1.67;;
11498;SDS011;5806;48.748;9.278;2023-01-01T05:37:56;4.33;;;1.60;;
11498;SDS011;5806;48.748;9.278;2023-01-01T05:40:22;2.30;;;1.27;;
11498;SDS011;5806;48.748;9.278;2023-01-01T05:42:49;5.67;;;1.20;;
11498;SDS011;5806;48.748;9.278;2023-01-01T05:45:15;4.40;;;1.60;;
11498;SDS011;5806;48.748;9.278;2023-01-01T05:47:42;2.60;;;1.50;;
11498;SDS011;5806;48.748;9.278;2023-01-01T05:50:08;5.67;;;1.30;;
11498;SDS011;5806;48.748;9.278;2023-01-01T05:52:35;3.43;;;1.43;;
11498;SDS011;5806;48.748;9.278;2023-01-01T05:55:01;2.83;;;1.60;;
11498;SDS011;5806;48.748;9.278;2023-01-01T05:57:28;2.13;;;1.53;;
11498;SDS011;5806;48.748;9.278;2023-01-01T05:59:54;2.70;;;1.60;;
11498;SDS011;5806;48.748;9.278;2023-01-01T06:02:21;2.53;;;1.50;;
11498;SDS011;5806;48.748;9.278;2023-01-01T06:04:47;3.00;;;1.60;;
11498;SDS011;5806;48.748;9.278;2023-01-01T06:07:14;2.87;;;1.50;;
11498;SDS011;5806;48.748;9.278;2023-01-01T06:09:40;4.33;;;1.90;;
11498;SDS011;5806;48.748;9.278;2023-01-01T06:12:07;4.50;;;1.50;;
11498;SDS011;5806;48.748;9.278;2023-01-01T06:14:34;3.23;;;1.60;;
11498;SDS011;5806;48.748;9.278;2023-01-01T06:17:00;4.30;;;1.47;;
11498;SDS011;5806;48.748;9.278;2023-01-01T06:19:27;3.03;;;1.53;;
11498;SDS011;5806;48.748;9.278;2023-01-01T06:21:53;5.83;;;1.80;;
11498;SDS011;5806;48.748;9.278;2023-01-01T06:24:20;4.10;;;1.33;;
11498;SDS011;5806;48.748;9.278;2023-01-01T06:26:46;4.20;;;1.60;;
11498;SDS011;5806;48.748;9.278;2023-01-01T06:29:13;5.03;;;1.80;;
11498;SDS011;5806;48.748;9.278;2023-01-01T06:31:39;4.27;;;1.20;;
11498;SDS011;5806;48.748;9.278;2023-01-01T06:34:06;3.90;;;1.77;;
11498;SDS011;5806;48.748;9.278;2023-01-01T06:36:33;4.33;;;1.50;;
11498;SDS011;5806;48.748;9.278;2023-01-01T06:38:59;5.47;;;1.70;;
11498;SDS011;5806;48.748;9.278;2023-01-01T06:41:27;4.07;;;1.33;;
11498;SDS011;5806;48.748;9.278;2023-01-01T06:43:55;4.13;;;1.40;;
11498;SDS011;5806;48.748;9.278;2023-01-01T06:46:23;3.10;;;1.30;;
11498;SDS011;5806;48.748;9.278;2023-01-01T06:49:01;3.90;;;1.60;;
11498;SDS011;5806;48.748;9.278;2023-01-01T06:51:26;4.60;;;1.50;;
11498;SDS011;5806;48.748;9.278;2023-01-01T06:53:52;2.77;;;1.67;;
11498;SDS011;5806;48.748;9.278;2023-01-01T06:56:19;5.30;;;1.80;;
11498;SDS011;5806;48.748;9.278;2023-01-01T06:58:46;4.70;;;1.57;;
11498;SDS011;5806;48.748;9.278;2023-01-01T07:01:18;3.73;;;1.30;;
11498;SDS011;5806;48.748;9.278;2023-01-01T07:03:41;3.50;;;1.57;;
11498;SDS011;5806;48.748;9.278;2023-01-01T07:06:08;4.67;;;1.33;;
11498;SDS011;5806;48.748;9.278;2023-01-01T07:08:35;4.50;;;1.40;;
11498;SDS011;5806;48.748;9.278;2023-01-01T07:11:02;3.73;;;1.40;;
11498;SDS011;5806;48.748;9.278;2023-01-01T07:13:29;3.67;;;1.40;;
11498;SDS011;5806;48.748;9.278;2023-01-01T07:15:56;3.83;;;1.33;;
11498;SDS011;5806;48.748;9.278;2023-01-01T07:18:22;3.53;;;1.57;;
11498;SDS011;5806;48.748;9.278;2023-01-01T07:20:50;3.73;;;1.63;;
11498;SDS011;5806;48.748;9.278;2023-01-01T07:23:18;5.10;;;1.47;;
11498;SDS011;5806;48.748;9.278;2023-01-01T07:25:44;2.17;;;1.50;;
11498;SDS011;5806;48.748;9.278;2023-01-01T07:28:11;2.50;;;1.40;;
11498;SDS011;5806;48.748;9.278;2023-01-01T07:30:37;3.40;;;1.60;;
11498;SDS011;5806;48.748;9.278;2023-01-01T07:33:04;2.47;;;1.50;;
11498;SDS011;5806;48.748;9.278;2023-01-01T07:35:30;2.67;;;1.50;;
11498;SDS011;5806;48.748;9.278;2023-01-01T07:37:57;4.93;;;1.70;;
11498;SDS011;5806;48.748;9.278;2023-01-01T07:40:23;4.43;;;1.70;;
11498;SDS011;5806;48.748;9.278;2023-01-01T07:42:50;4.77;;;1.70;;
11498;SDS011;5806;48.748;9.278;2023-01-01T07:45:16;2.63;;;1.50;;
11498;SDS011;5806;48.748;9.278;2023-01-01T07:47:44;3.83;;;1.60;;
11498;SDS011;5806;48.748;9.278;2023-01-01T07:50:14;6.57;;;1.90;;
11498;SDS011;5806;48.748;9.278;2023-01-01T07:52:42;2.53;;;1.40;;
11498;SDS011;5806;48.748;9.278;2023-01-01T07:55:11;4.17;;;2.00;;
11498;SDS011;5806;48.748;9.278;2023-01-01T07:57:39;5.37;;;1.80;;
11498;SDS011;5806;48.748;9.278;2023-01-01T08:00:06;4.33;;;1.53;;
11498;SDS011;5806;48.748;9.278;2023-01-01T08:02:32;3.03;;;1.90;;
11498;SDS011;5806;48.748;9.278;2023-01-01T08:04:59;5.53;;;1.80;;
11498;SDS011;5806;48.748;9.278;2023-01-01T08:07:25;6.13;;;2.03;;
11498;SDS011;5806;48.748;9.278;2023-01-01T08:09:52;5.57;;;1.53;;
11498;SDS011;5806;48.748;9.278;2023-01-01T08:12:18;5.33;;;1.80;;
11498;SDS011;5806;48.748;9.278;2023-01-01T08:14:45;5.80;;;1.77;;
11498;SDS011;5806;48.748;9.278;2023-01-01T08:17:11;5.77;;;1.70;;
11498;SDS011;5806;48.748;9.278;2023-01-01T08:19:38;3.83;;;2.10;;
11498;SDS011;5806;48.748;9.278;2023-01-01T08:22:06;6.30;;;2.03;;
11498;SDS011;5806;48.748;9.278;2023-01-01T08:24:33;2.80;;;1.80;;
11498;SDS011;5806;48.748;9.278;2023-01-01T08:26:59;2.83;;;1.60;;
11498;SDS011;5806;48.748;9.278;2023-01-01T08:29:25;5.10;;;1.87;;
11498;SDS011;5806;48.748;9.278;2023-01-01T08:31:52;4.67;;;1.80;;
11498;SDS011;5806;48.748;9.278;2023-01-01T08:34:18;5.13;;;1.80;;
11498;SDS011;5806;48.748;9.278;2023-01-01T08:36:45;7.43;;;2.30;;
11498;SDS011;5806;48.748;9.278;2023-01-01T08:39:11;5.30;;;2.00;;
11498;SDS011;5806;48.748;9.278;2023-01-01T08:41:38;4.60;;;1.70;;
11498;SDS011;5806;48.748;9.278;2023-01-01T08:44:04;4.50;;;1.70;;
11498;SDS011;5806;48.748;9.278;2023-01-01T08:46:31;4.27;;;1.50;;
11498;SDS011;5806;48.748;9.278;2023-01-01T08:48:57;5.93;;;1.70;;
11498;SDS011;5806;48.748;9.278;2023-01-01T08:51:24;6.33;;;1.80;;
11498;SDS011;5806;48.748;9.278;2023-01-01T08:53:50;6.10;;;1.93;;
11498;SDS011;5806;48.748;9.278;2023-01-01T08:56:17;4.20;;;1.80;;
11498;SDS011;5806;48.748;9.278;2023-01-01T08:58:44;6.17;;;1.80;;
11498;SDS011;5806;48.748;9.278;2023-01-01T09:01:11;5.00;;;1.57;;
11498;SDS011;5806;48.748;9.278;2023-01-01T09:03:37;6.07;;;1.50;;
11498;SDS011;5806;48.748;9.278;2023-01-01T09:06:04;3.27;;;1.50;;
11498;SDS011;5806;48.748;9.278;2023-01-01T09:08:30;5.43;;;2.07;;
11498;SDS011;5806;48.748;9.278;2023-01-01T09:10:58;5.03;;;1.97;;
11498;SDS011;5806;48.748;9.278;2023-01-01T09:13:25;4.50;;;1.37;;
11498;SDS011;5806;48.748;9.278;2023-01-01T09:15:51;3.97;;;1.60;;
11498;SDS011;5806;48.748;9.278;2023-01-01T09:18:18;4.83;;;1.53;;
11498;SDS011;5806;48.748;9.278;2023-01-01T09:20:44;6.20;;;1.97;;
11498;SDS011;5806;48.748;9.278;2023-01-01T09:23:11;5.37;;;2.00;;
11498;SDS011;5806;48.748;9.278;2023-01-01T09:25:38;4.17;;;1.70;;
11498;SDS011;5806;48.748;9.278;2023-01-01T09:28:10;5.17;;;2.10;;
11498;SDS011;5806;48.748;9.278;2023-01-01T09:30:33;4.60;;;1.90;;
11498;SDS011;5806;48.748;9.278;2023-01-01T09:33:00;5.90;;;1.80;;
11498;SDS011;5806;48.748;9.278;2023-01-01T09:35:26;4.43;;;1.77;;
11498;SDS011;5806;48.748;9.278;2023-01-01T09:37:53;6.27;;;1.73;;
11498;SDS011;5806;48.748;9.278;2023-01-01T09:40:31;3.83;;;1.63;;
11498;SDS011;5806;48.748;9.278;2023-01-01T09:45:28;4.90;;;1.63;;
11498;SDS011;5806;48.748;9.278;2023-01-01T09:48:02;3.73;;;1.30;;
11498;SDS011;5806;48.748;9.278;2023-01-01T09:50:26;5.33;;;1.80;;
11498;SDS011;5806;48.748;9.278;2023-01-01T09:52:56;7.70;;;1.70;;
11498;SDS011;5806;48.748;9.278;2023-01-01T09:55:25;5.07;;;2.03;;
11498;SDS011;5806;48.748;9.278;2023-01-01T09:57:51;5.20;;;1.80;;
11498;SDS011;5806;48.748;9.278;2023-01-01T10:00:18;3.97;;;1.70;;
11498;SDS011;5806;48.748;9.278;2023-01-01T10:08:15;4.77;;;1.60;;
11498;SDS011;5806;48.748;9.278;2023-01-01T10:10:39;4.37;;;1.80;;
11498;SDS011;5806;48.748;9.278;2023-01-01T10:13:19;4.90;;;1.60;;
11498;SDS011;5806;48.748;9.278;2023-01-01T10:15:53;3.70;;;1.50;;
11498;SDS011;5806;48.748;9.278;2023-01-01T10:18:19;5.50;;;1.53;;
11498;SDS011;5806;48.748;9.278;2023-01-01T10:20:46;4.20;;;1.60;;
11498;SDS011;5806;48.748;9.278;2023-01-01T10:23:23;6.33;;;1.63;;
11498;SDS011;5806;48.748;9.278;2023-01-01T10:25:50;5.73;;;1.47;;
11498;SDS011;5806;48.748;9.278;2023-01-01T10:28:22;6.67;;;1.80;;
11498;SDS011;5806;48.748;9.278;2023-01-01T10:30:48;5.73;;;1.90;;
11498;SDS011;5806;48.748;9.278;2023-01-01T10:33:16;3.10;;;1.40;;
11498;SDS011;5806;48.748;9.278;2023-01-01T10:35:45;3.73;;;1.60;;
11498;SDS011;5806;48.748;9.278;2023-01-01T10:38:16;5.07;;;1.40;;
11498;SDS011;5806;48.748;9.278;2023-01-01T10:40:39;5.93;;;1.57;;
11498;SDS011;5806;48.748;9.278;2023-01-01T10:43:08;3.10;;;1.40;;
11498;SDS011;5806;48.748;9.278;2023-01-01T10:45:35;4.97;;;1.43;;
11498;SDS011;5806;48.748;9.278;2023-01-01T10:48:09;4.23;;;1.60;;
11498;SDS011;5806;48.748;9.278;2023-01-01T10:53:18;4.87;;;1.87;;
11498;SDS011;5806;48.748;9.278;2023-01-01T10:55:48;4.70;;;1.73;;
11498;SDS011;5806;48.748;9.278;2023-01-01T10:58:25;3.80;;;1.57;;
11498;SDS011;5806;48.748;9.278;2023-01-01T11:00:43;7.57;;;1.90;;
11498;SDS011;5806;48.748;9.278;2023-01-01T11:03:13;5.10;;;1.90;;
11498;SDS011;5806;48.748;9.278;2023-01-01T11:05:39;4.27;;;1.70;;
11498;SDS011;5806;48.748;9.278;2023-01-01T11:08:15;5.63;;;1.70;;
11498;SDS011;5806;48.748;9.278;2023-01-01T11:10:41;5.03;;;1.67;;
11498;SDS011;5806;48.748;9.278;2023-01-01T11:13:17;3.80;;;1.63;;
11498;SDS011;5806;48.748;9.278;2023-01-01T11:15:43;4.23;;;1.37;;
11498;SDS011;5806;48.748;9.278;2023-01-01T11:18:15;6.97;;;1.93;;
11498;SDS011;5806;48.748;9.278;2023-01-01T11:20:38;7.63;;;2.10;;
11498;SDS011;5806;48.748;9.278;2023-01-01T11:23:18;4.57;;;1.73;;
11498;SDS011;5806;48.748;9.278;2023-01-01T11:25:55;4.70;;;1.93;;
11498;SDS011;5806;48.748;9.278;2023-01-01T11:28:22;5.07;;;1.80;;
11498;SDS011;5806;48.748;9.278;2023-01-01T11:30:59;4.07;;;1.40;;
11498;SDS011;5806;48.748;9.278;2023-01-01T11:33:26;4.53;;;1.53;;
11498;SDS011;5806;48.748;9.278;2023-01-01T11:35:54;5.90;;;1.57;;
11498;SDS011;5806;48.748;9.278;2023-01-01T11:38:21;6.60;;;1.80;;
11498;SDS011;5806;48.748;9.278;2023-01-01T11:40:53;5.30;;;1.57;;
11498;SDS011;5806;48.748;9.278;2023-01-01T11:43:23;5.67;;;1.70;;
11498;SDS011;5806;48.748;9.278;2023-01-01T11:45:53;4.63;;;1.60;;
11498;SDS011;5806;48.748;9.278;2023-01-01T11:48:30;5.90;;;1.73;;
11498;SDS011;5806;48.748;9.278;2023-01-01T11:50:57;5.13;;;1.80;;
11498;SDS011;5806;48.748;9.278;2023-01-01T11:53:26;4.57;;;1.50;;
11498;SDS011;5806;48.748;9.278;2023-01-01T11:55:56;6.40;;;1.77;;
11498;SDS011;5806;48.748;9.278;2023-01-01T11:58:27;3.90;;;1.40;;
11498;SDS011;5806;48.748;9.278;2023-01-01T12:00:56;5.57;;;1.53;;
11498;SDS011;5806;48.748;9.278;2023-01-01T12:03:34;4.33;;;1.60;;
11498;SDS011;5806;48.748;9.278;2023-01-01T12:06:18;7.17;;;2.10;;
11498;SDS011;5806;48.748;9.278;2023-01-01T12:08:51;6.83;;;1.73;;
11498;SDS011;5806;48.748;9.278;2023-01-01T12:11:35;4.37;;;1.77;;
11498;SDS011;5806;48.748;9.278;2023-01-01T12:14:04;4.87;;;1.70;;
11498;SDS011;5806;48.748;9.278;2023-01-01T12:16:39;5.00;;;1.37;;
11498;SDS011;5806;48.748;9.278;2023-01-01T12:19:14;7.40;;;1.80;;
11498;SDS011;5806;48.748;9.278;2023-01-01T12:21:40;5.73;;;1.60;;
11498;SDS011;5806;48.748;9.278;2023-01-01T12:24:09;7.37;;;1.70;;
11498;SDS011;5806;48.748;9.278;2023-01-01T12:27:23;5.20;;;1.70;;
11498;SDS011;5806;48.748;9.278;2023-01-01T12:34:26;5.33;;;1.83;;
11498;SDS011;5806;48.748;9.278;2023-01-01T12:36:52;2.10;;;1.13;;
11498;SDS011;5806;48.748;9.278;2023-01-01T12:42:25;7.17;;;1.53;;
11498;SDS011;5806;48.748;9.278;2023-01-01T13:00:16;5.37;;;1.53;;
11498;SDS011;5806;48.748;9.278;2023-01-01T13:02:54;5.37;;;1.70;;
11498;SDS011;5806;48.748;9.278;2023-01-01T13:05:25;5.57;;;1.40;;
11498;SDS011;5806;48.748;9.278;2023-01-01T13:07:51;5.23;;;1.40;;
11498;SDS011;5806;48.748;9.278;2023-01-01T13:12:51;2.50;;;1.30;;
11498;SDS011;5806;48.748;9.278;2023-01-01T13:37:03;3.40;;;1.20;;
11498;SDS011;5806;48.748;9.278;2023-01-01T13:42:20;6.27;;;1.83;;
11498;SDS011;5806;48.748;9.278;2023-01-01T13:44:32;2.27;;;1.17;;
11498;SDS011;5806;48.748;9.278;2023-01-01T13:49:57;4.70;;;1.20;;
11498;SDS011;5806;48.748;9.278;2023-01-01T13:54:58;4.50;;;1.30;;
11498;SDS011;5806;48.748;9.278;2023-01-01T13:57:30;3.90;;;1.33;;
11498;SDS011;5806;48.748;9.278;2023-01-01T13:59:59;4.77;;;1.70;;
11498;SDS011;5806;48.748;9.278;2023-01-01T14:02:32;6.07;;;1.70;;
11498;SDS011;5806;48.748;9.278;2023-01-01T14:05:01;2.30;;;1.07;;
11498;SDS011;5806;48.748;9.278;2023-01-01T14:10:15;3.97;;;1.47;;
11498;SDS011;5806;48.748;9.278;2023-01-01T14:12:42;3.70;;;1.47;;
11498;SDS011;5806;48.748;9.278;2023-01-01T14:15:23;4.43;;;1.40;;
11498;SDS011;5806;48.748;9.278;2023-01-01T14:17:50;4.63;;;1.57;;
11498;SDS011;5806;48.748;9.278;2023-01-01T14:20:18;5.17;;;2.60;;
11498;SDS011;5806;48.748;9.278;2023-01-01T14:22:45;7.27;;;2.33;;
11498;SDS011;5806;48.748;9.278;2023-01-01T14:25:13;6.10;;;2.03;;
11498;SDS011;5806;48.748;9.278;2023-01-01T14:27:41;6.43;;;2.17;;
11498;SDS011;5806;48.748;9.278;2023-01-01T14:30:15;4.37;;;1.40;;
11498;SDS011;5806;48.748;9.278;2023-01-01T14:32:43;5.03;;;1.87;;
11498;SDS011;5806;48.748;9.278;2023-01-01T14:35:13;7.07;;;1.13;;
11498;SDS011;5806;48.748;9.278;2023-01-01T14:37:40;3.10;;;1.40;;
11498;SDS011;5806;48.748;9.278;2023-01-01T14:40:28;4.43;;;1.67;;
11498;SDS011;5806;48.748;9.278;2023-01-01T14:42:35;6.03;;;1.70;;
11498;SDS011;5806;48.748;9.278;2023-01-01T14:45:02;5.40;;;1.60;;
11498;SDS011;5806;48.748;9.278;2023-01-01T14:47:30;5.33;;;1.73;;
11498;SDS011;5806;48.748;9.278;2023-01-01T14:50:00;4.50;;;1.50;;
11498;SDS011;5806;48.748;9.278;2023-01-01T14:52:25;4.67;;;1.13;;
11498;SDS011;5806;48.748;9.278;2023-01-01T14:54:54;3.17;;;1.77;;
11498;SDS011;5806;48.748;9.278;2023-01-01T14:57:22;4.30;;;1.50;;
11498;SDS011;5806;48.748;9.278;2023-01-01T14:59:50;2.67;;;1.27;;
11498;SDS011;5806;48.748;9.278;2023-01-01T15:02:28;4.20;;;1.20;;
11498;SDS011;5806;48.748;9.278;2023-01-01T15:04:56;2.97;;;1.40;;
11498;SDS011;5806;48.748;9.278;2023-01-01T15:09:51;3.87;;;1.47;;
11498;SDS011;5806;48.748;9.278;2023-01-01T15:12:18;2.80;;;1.30;;
11498;SDS011;5806;48.748;9.278;2023-01-01T15:14:46;4.33;;;1.40;;
11498;SDS011;5806;48.748;9.278;2023-01-01T15:17:14;4.70;;;1.57;;
11498;SDS011;5806;48.748;9.278;2023-01-01T15:19:42;2.00;;;1.37;;
11498;SDS011;5806;48.748;9.278;2023-01-01T15:22:09;1.93;;;1.20;;
11498;SDS011;5806;48.748;9.278;2023-01-01T15:24:37;5.27;;;1.63;;
11498;SDS011;5806;48.748;9.278;2023-01-01T15:27:05;2.47;;;1.40;;
11498;SDS011;5806;48.748;9.278;2023-01-01T15:32:06;2.17;;;1.60;;
11498;SDS011;5806;48.748;9.278;2023-01-01T15:34:33;3.87;;;1.80;;
11498;SDS011;5806;48.748;9.278;2023-01-01T15:37:04;2.93;;;1.80;;
11498;SDS011;5806;48.748;9.278;2023-01-01T15:39:24;3.67;;;1.50;;
11498;SDS011;5806;48.748;9.278;2023-01-01T15:41:53;4.43;;;2.10;;
11498;SDS011;5806;48.748;9.278;2023-01-01T15:44:24;4.87;;;2.10;;
11498;SDS011;5806;48.748;9.278;2023-01-01T15:46:48;4.33;;;2.50;;
11498;SDS011;5806;48.748;9.278;2023-01-01T15:49:27;6.13;;;2.57;;
11498;SDS011;5806;48.748;9.278;2023-01-01T15:51:58;4.77;;;2.50;;
11498;SDS011;5806;48.748;9.278;2023-01-01T15:54:25;4.70;;;2.60;;
11498;SDS011;5806;48.748;9.278;2023-01-01T15:56:52;4.53;;;2.23;;
11498;SDS011;5806;48.748;9.278;2023-01-01T15:59:21;4.80;;;2.10;;
11498;SDS011;5806;48.748;9.278;2023-01-01T16:01:46;5.97;;;3.07;;
11498;SDS011;5806;48.748;9.278;2023-01-01T16:04:15;6.13;;;3.00;;
11498;SDS011;5806;48.748;9.278;2023-01-01T16:06:44;3.53;;;2.53;;
11498;SDS011;5806;48.748;9.278;2023-01-01T16:09:12;5.90;;;2.90;;
11498;SDS011;5806;48.748;9.278;2023-01-01T16:11:39;4.10;;;2.83;;
11498;SDS011;5806;48.748;9.278;2023-01-01T16:14:05;3.83;;;2.33;;
11498;SDS011;5806;48.748;9.278;2023-01-01T16:16:33;4.70;;;2.37;;
11498;SDS011;5806;48.748;9.278;2023-01-01T16:18:59;3.87;;;2.40;;
11498;SDS011;5806;48.748;9.278;2023-01-01T16:21:26;5.73;;;2.67;;
11498;SDS011;5806;48.748;9.278;2023-01-01T16:23:53;5.80;;;2.60;;
11498;SDS011;5806;48.748;9.278;2023-01-01T16:26:20;4.33;;;2.50;;
11498;SDS011;5806;48.748;9.278;2023-01-01T16:28:47;7.20;;;2.83;;
11498;SDS011;5806;48.748;9.278;2023-01-01T16:31:14;5.13;;;2.13;;
11498;SDS011;5806;48.748;9.278;2023-01-01T16:33:42;4.43;;;2.10;;
11498;SDS011;5806;48.748;9.278;2023-01-01T16:36:10;6.30;;;2.50;;